createdAt,value
2019-05-10T05:02:02.507Z,39.03
2019-05-10T06:14:03.861Z,23.83
2019-05-10T06:32:05.768Z,22.25
2019-05-10T07:23:51.333Z,22.95
2019-05-10T07:26:27.440Z,23.22
2019-05-10T07:29:10.267Z,22.37
2019-05-10T07:31:38.856Z,21.97
2019-05-10T07:38:35.029Z,21.23
2019-05-10T07:51:44.919Z,19.75
2019-05-10T07:54:19.604Z,21.85
2019-05-10T07:57:34.015Z,20.48
2019-05-10T07:59:52.533Z,21.02
2019-05-10T08:09:31.521Z,20.35
2019-05-10T08:16:20.321Z,20.80
2019-05-10T08:18:49.733Z,19.73
2019-05-10T08:21:23.931Z,21.25
2019-05-10T08:24:03.908Z,22.00
2019-05-10T08:37:37.406Z,19.50
2019-05-10T08:40:07.868Z,19.90
2019-05-10T08:42:45.336Z,20.60
2019-05-10T08:45:38.903Z,20.37
2019-05-10T08:52:13.940Z,19.75
2019-05-10T08:54:45.856Z,19.02
2019-05-10T08:57:18.737Z,19.73
2019-05-10T08:59:54.202Z,19.50
2019-05-10T09:02:28.875Z,19.07
2019-05-10T09:04:56.832Z,18.07
2019-05-10T09:07:29.468Z,18.73
2019-05-10T09:18:22.899Z,18.32
2019-05-10T09:21:02.619Z,19.35
2019-05-10T09:23:29.807Z,18.82
2019-05-10T09:26:09.527Z,17.80
2019-05-10T09:28:36.126Z,18.62
2019-05-10T09:31:18.910Z,17.25
2019-05-10T09:33:49.166Z,16.87
2019-05-10T09:36:15.843Z,16.90
2019-05-10T09:38:48.407Z,17.42
2019-05-10T09:41:19.450Z,18.15
2019-05-10T09:43:53.586Z,17.73
2019-05-10T09:46:26.561Z,19.07
2019-05-10T09:49:06.180Z,18.67
2019-05-10T09:55:27.841Z,18.27
2019-05-10T10:01:54.407Z,15.78
2019-05-10T10:04:27.983Z,14.85
2019-05-10T10:06:58.390Z,15.68
2019-05-10T10:09:33.684Z,15.00
2019-05-10T10:12:03.252Z,15.45
2019-05-10T10:14:39.478Z,14.80
2019-05-10T10:21:02.579Z,14.33
2019-05-10T10:23:37.729Z,13.03
2019-05-10T10:26:12.556Z,13.50
2019-05-10T10:28:41.885Z,13.88
2019-05-10T10:31:26.192Z,13.15
2019-05-10T10:33:57.829Z,11.78
2019-05-10T10:36:21.597Z,12.80
2019-05-10T10:38:53.011Z,12.05
2019-05-10T10:41:31.206Z,13.15
2019-05-10T10:43:58.590Z,14.60
2019-05-10T10:46:29.709Z,13.72
2019-05-10T10:49:02.885Z,12.03
2019-05-10T10:51:37.968Z,11.55
2019-05-10T10:54:12.535Z,11.18
2019-05-10T10:56:42.762Z,10.10
2019-05-10T10:59:13.870Z,10.60
2019-05-10T11:01:50.566Z,10.08
2019-05-10T11:04:20.148Z,11.12
2019-05-10T11:07:01.361Z,11.08
2019-05-10T11:09:24.141Z,10.88
2019-05-10T11:11:56.765Z,10.38
2019-05-10T11:14:31.994Z,10.43
2019-05-10T11:17:01.210Z,10.48
2019-05-10T11:19:33.209Z,9.60
2019-05-10T11:22:09.602Z,9.33
2019-05-10T11:24:37.163Z,9.18
2019-05-10T11:27:13.116Z,10.35
2019-05-10T11:29:42.816Z,21.15
2019-05-10T11:32:18.618Z,21.95
2019-05-10T11:34:50.543Z,22.75
2019-05-10T11:37:31.037Z,18.80
2019-05-10T11:39:54.427Z,20.57
2019-05-10T11:42:25.532Z,17.00
2019-05-10T11:44:57.596Z,18.52
2019-05-10T11:47:31.090Z,21.50
2019-05-10T11:50:06.259Z,20.85
2019-05-10T11:52:37.634Z,20.68
2019-05-10T11:55:11.472Z,21.65
2019-05-10T11:57:44.077Z,25.95
2019-05-10T12:00:28.078Z,17.37
2019-05-10T12:03:06.960Z,18.27
2019-05-10T12:05:28.531Z,22.90
2019-05-10T12:08:01.978Z,23.20
2019-05-10T12:10:43.098Z,21.33
2019-05-10T12:13:18.602Z,24.23
2019-05-10T12:15:43.067Z,22.77
2019-05-10T12:18:15.057Z,22.40
2019-05-10T12:21:00.292Z,23.20
2019-05-10T12:23:29.482Z,24.82
2019-05-10T12:27:08.133Z,21.37
2019-05-10T12:28:35.303Z,24.43
2019-05-10T12:31:12.284Z,24.07
2019-05-10T12:33:46.951Z,25.15
2019-05-10T12:36:26.021Z,23.32
2019-05-10T12:38:52.559Z,17.17
2019-05-10T12:41:23.667Z,20.92
2019-05-10T12:44:02.804Z,23.27
2019-05-10T12:46:27.527Z,25.27
2019-05-10T12:49:02.051Z,23.22
2019-05-10T12:51:33.981Z,19.10
2019-05-10T12:54:05.073Z,25.50
2019-05-10T12:56:43.864Z,23.67
2019-05-10T12:59:09.869Z,22.10
2019-05-10T13:01:41.024Z,22.62
2019-05-10T13:04:16.998Z,25.00
2019-05-10T13:06:49.259Z,25.20
2019-05-10T13:09:36.088Z,27.50
2019-05-10T13:12:03.011Z,23.75
2019-05-10T13:14:29.417Z,24.02
2019-05-10T13:17:09.073Z,26.45
2019-05-10T13:19:35.009Z,27.77
2019-05-10T13:29:08.120Z,25.02
2019-05-10T13:31:43.036Z,28.98
2019-05-10T13:34:14.721Z,27.73
2019-05-10T13:36:45.994Z,26.07
2019-05-10T13:39:19.240Z,28.25
2019-05-10T13:41:51.460Z,29.37
2019-05-10T13:44:24.361Z,27.42
2019-05-10T13:46:55.425Z,28.90
2019-05-10T13:49:37.852Z,27.90
2019-05-10T13:52:12.019Z,26.27
2019-05-10T13:54:43.930Z,28.95
2019-05-10T13:57:15.027Z,28.32
2019-05-10T13:59:49.106Z,26.25
2019-05-10T14:02:22.826Z,26.48
2019-05-10T14:04:53.093Z,25.90
2019-05-10T14:07:25.737Z,25.12
2019-05-10T14:09:57.715Z,26.42
2019-05-10T14:12:28.858Z,25.90
2019-05-10T14:15:02.404Z,22.75
2019-05-10T14:17:34.469Z,25.23
2019-05-10T14:20:19.723Z,18.35
2019-05-10T14:22:41.456Z,28.62
2019-05-10T14:25:13.604Z,21.02
2019-05-10T14:27:47.373Z,26.40
2019-05-10T14:30:19.407Z,25.25
2019-05-10T14:32:50.545Z,29.55
2019-05-10T14:35:24.842Z,30.65
2019-05-10T14:38:07.052Z,25.15
2019-05-10T14:40:30.826Z,24.75
2019-05-10T14:43:05.199Z,19.30
2019-05-10T14:45:39.340Z,23.55
2019-05-10T14:48:10.410Z,30.27
2019-05-10T14:50:46.093Z,30.88
2019-05-10T14:53:14.278Z,30.88
2019-05-10T14:55:49.018Z,42.98
2019-05-10T14:58:20.335Z,35.60
2019-05-10T15:00:54.458Z,29.90
2019-05-10T15:03:25.534Z,26.75
2019-05-10T15:06:01.396Z,31.60
2019-05-10T15:08:29.359Z,31.95
2019-05-10T15:11:00.466Z,27.90
2019-05-10T15:13:34.762Z,29.63
2019-05-10T15:16:11.989Z,19.02
2019-05-10T15:18:42.864Z,29.37
2019-05-10T15:21:17.138Z,34.30
2019-05-10T15:23:48.184Z,32.83
2019-05-10T15:26:20.093Z,25.20
2019-05-10T15:28:52.653Z,32.05
2019-05-10T15:31:29.092Z,33.60
2019-05-10T15:33:56.589Z,28.07
2019-05-10T15:36:31.604Z,31.17
2019-05-10T15:39:04.526Z,17.27
2019-05-10T15:41:36.660Z,28.75
2019-05-10T15:44:08.760Z,29.52
2019-05-10T15:46:42.301Z,27.85
2019-05-10T15:49:22.689Z,30.10
2019-05-10T15:51:48.959Z,27.50
2019-05-10T15:54:22.761Z,31.48
2019-05-10T15:56:55.654Z,28.12
2019-05-10T15:59:26.982Z,27.70
2019-05-10T16:01:58.075Z,31.73
2019-05-10T16:04:29.190Z,27.27
2019-05-10T16:07:03.296Z,32.25
2019-05-10T16:09:34.404Z,25.40
2019-05-10T16:12:08.675Z,26.50
2019-05-10T16:14:45.752Z,25.10
2019-05-10T16:17:23.165Z,24.12
2019-05-10T16:19:59.651Z,21.37
2019-05-10T16:22:30.424Z,19.65
2019-05-10T16:25:02.814Z,24.05
2019-05-10T16:27:41.534Z,28.17
2019-05-10T16:30:11.912Z,22.87
2019-05-10T16:32:47.238Z,23.87
2019-05-10T16:35:18.307Z,24.05
2019-05-10T16:37:51.014Z,24.63
2019-05-10T16:40:26.536Z,23.00
2019-05-10T16:43:00.541Z,23.05
2019-05-10T16:45:33.255Z,24.63
2019-05-10T16:48:05.995Z,20.15
2019-05-10T16:50:39.086Z,24.72
2019-05-10T16:53:10.205Z,27.80
2019-05-10T16:55:42.943Z,27.73
2019-05-10T16:58:17.807Z,27.25
2019-05-10T17:00:50.962Z,26.45
2019-05-10T17:03:23.796Z,27.32
2019-05-10T17:05:58.683Z,25.37
2019-05-10T17:08:30.615Z,28.80
2019-05-10T17:11:09.631Z,24.98
2019-05-10T17:13:36.284Z,25.40
2019-05-10T17:16:11.689Z,27.80
2019-05-10T17:18:39.974Z,30.95
2019-05-10T17:21:11.048Z,28.15
2019-05-10T17:23:46.841Z,27.73
2019-05-10T17:26:19.772Z,27.50
2019-05-10T17:28:52.078Z,29.07
2019-05-10T17:31:24.871Z,26.37
2019-05-10T17:33:56.837Z,29.80
2019-05-10T17:36:27.912Z,25.72
2019-05-10T17:39:01.450Z,32.13
2019-05-10T17:41:32.683Z,41.42
2019-05-10T17:47:33.744Z,25.32
2019-05-10T17:50:07.761Z,27.40
2019-05-10T17:52:39.661Z,30.17
2019-05-10T17:55:16.484Z,29.25
2019-05-10T17:57:54.623Z,29.02
2019-05-10T18:08:51.703Z,31.55
2019-05-10T18:11:24.379Z,32.30
2019-05-10T18:14:01.058Z,34.48
2019-05-10T18:16:33.750Z,37.23
2019-05-10T18:19:04.964Z,34.15
2019-05-10T18:21:36.877Z,33.20
2019-05-10T18:24:36.308Z,45.67
2019-05-10T18:27:07.598Z,47.43
2019-05-10T18:29:38.681Z,43.55
2019-05-10T18:32:11.531Z,45.50
2019-05-10T18:34:42.686Z,48.00
2019-05-10T18:37:15.879Z,65.12
2019-05-10T18:39:52.899Z,50.03
2019-05-10T18:42:25.257Z,52.43
2019-05-10T18:44:54.490Z,50.35
2019-05-10T18:47:25.561Z,47.90
2019-05-10T18:49:56.632Z,40.28
2019-05-10T18:52:28.506Z,37.85
2019-05-10T18:54:59.554Z,41.30
2019-05-10T18:57:30.676Z,49.38
2019-05-10T19:00:03.726Z,49.85
2019-05-10T19:02:36.426Z,43.90
2019-05-10T19:05:09.295Z,37.75
2019-05-10T19:07:41.492Z,41.42
2019-05-10T19:10:12.622Z,42.30
2019-05-10T19:12:45.683Z,41.35
2019-05-10T19:15:17.071Z,42.88
2019-05-10T19:17:48.204Z,44.55
2019-05-10T19:20:19.428Z,41.60
2019-05-10T19:22:51.430Z,46.42
2019-05-10T19:25:22.502Z,46.25
2019-05-10T19:27:53.604Z,41.05
2019-05-10T19:30:24.681Z,49.15
2019-05-10T19:32:56.625Z,47.30
2019-05-10T19:35:29.765Z,41.33
2019-05-10T19:38:02.126Z,40.50
2019-05-10T19:40:34.036Z,35.38
2019-05-10T19:43:05.139Z,36.83
2019-05-10T19:45:36.162Z,37.10
2019-05-10T19:48:07.227Z,35.90
2019-05-10T19:50:38.764Z,38.42
2019-05-10T19:53:11.624Z,37.53
2019-05-10T19:55:42.671Z,48.92
2019-05-10T19:58:16.836Z,52.62
2019-05-10T20:00:51.126Z,48.00
2019-05-10T20:03:22.177Z,46.80
2019-05-10T20:05:53.403Z,44.88
2019-05-10T20:08:26.296Z,47.23
2019-05-10T20:10:57.454Z,46.30
2019-05-10T20:13:28.650Z,46.73
2019-05-10T20:16:01.718Z,130.95
2019-05-10T20:18:33.016Z,58.68
2019-05-10T20:21:04.135Z,54.65
2019-05-10T20:23:36.125Z,57.60
2019-05-10T20:26:07.409Z,54.27
2019-05-10T20:28:38.520Z,54.85
2019-05-10T20:31:09.663Z,56.02
2019-05-10T20:33:43.772Z,61.20
2019-05-10T20:36:14.950Z,59.00
2019-05-10T20:38:46.916Z,57.05
2019-05-10T20:41:19.057Z,55.35
2019-05-10T20:43:51.032Z,57.43
2019-05-10T20:46:22.308Z,60.23
2019-05-10T20:48:54.976Z,58.75
2019-05-10T20:51:27.701Z,48.68
2019-05-10T20:53:59.716Z,45.50
2019-05-10T20:56:31.909Z,50.45
2019-05-10T20:59:03.028Z,60.80
2019-05-10T21:01:34.334Z,51.85
2019-05-10T21:04:05.504Z,59.73
2019-05-10T21:06:36.681Z,60.30
2019-05-10T21:09:08.752Z,61.85
2019-05-10T21:11:39.905Z,59.13
2019-05-10T21:14:11.170Z,55.73
2019-05-10T21:16:42.261Z,50.83
2019-05-10T21:19:14.921Z,43.30
2019-05-10T21:21:46.051Z,38.23
2019-05-10T21:24:17.980Z,39.55
2019-05-10T21:26:50.651Z,40.45
2019-05-10T21:29:23.278Z,42.67
2019-05-10T21:31:54.456Z,42.23
2019-05-10T21:34:25.519Z,41.50
2019-05-10T21:36:57.993Z,42.62
2019-05-10T21:39:29.138Z,43.50
2019-05-10T21:42:00.176Z,44.70
2019-05-10T21:44:31.265Z,43.52
2019-05-10T21:47:03.818Z,40.78
2019-05-10T21:49:34.916Z,40.05
2019-05-10T21:52:05.986Z,39.33
2019-05-10T21:54:37.122Z,39.98
2019-05-10T21:57:08.182Z,38.95
2019-05-10T21:59:39.309Z,37.90
2019-05-10T22:02:10.369Z,40.60
2019-05-10T22:04:41.577Z,38.60
2019-05-10T22:07:16.867Z,36.68
2019-05-10T22:09:48.824Z,37.17
2019-05-10T22:12:19.893Z,39.78
2019-05-10T22:14:50.985Z,37.93
2019-05-10T22:17:22.061Z,39.60
2019-05-10T22:19:54.705Z,39.20
2019-05-10T22:22:25.857Z,37.65
2019-05-10T22:24:58.352Z,36.13
2019-05-10T22:27:29.386Z,35.63
2019-05-10T22:30:00.494Z,35.13
2019-05-10T22:32:31.652Z,36.42
2019-05-10T22:35:04.145Z,36.75
2019-05-10T22:37:35.358Z,34.40
2019-05-10T22:40:08.871Z,34.48
2019-05-10T22:42:39.896Z,33.53
2019-05-10T22:45:11.174Z,35.25
2019-05-10T22:47:42.224Z,35.98
2019-05-10T22:50:14.913Z,34.18
2019-05-10T22:52:47.540Z,35.25
2019-05-10T22:55:20.236Z,34.50
2019-05-10T22:57:51.446Z,31.77
2019-05-10T23:00:23.992Z,31.10
2019-05-10T23:02:55.026Z,31.85
2019-05-10T23:05:26.125Z,32.70
2019-05-10T23:07:58.671Z,31.90
2019-05-10T23:10:29.778Z,31.45
2019-05-10T23:13:00.824Z,30.25
2019-05-10T23:15:31.927Z,30.27
2019-05-10T23:18:02.962Z,28.85
2019-05-10T23:20:34.143Z,26.30
2019-05-10T23:23:05.208Z,25.80
2019-05-10T23:25:36.291Z,24.90
2019-05-10T23:28:07.332Z,24.60
2019-05-10T23:30:38.419Z,24.13
2019-05-10T23:33:09.448Z,23.87
2019-05-10T23:35:40.540Z,24.47
2019-05-10T23:38:11.612Z,24.27
2019-05-10T23:40:42.746Z,21.60
2019-05-10T23:43:14.600Z,23.12
2019-05-10T23:45:45.692Z,23.15
2019-05-10T23:48:16.817Z,23.40
2019-05-10T23:50:47.883Z,24.20
2019-05-10T23:53:18.944Z,23.60
2019-05-10T23:55:51.613Z,23.25
2019-05-10T23:58:22.688Z,23.43
